Snow/Ice From: 16-12-2017 16:00 Until: 17-12-2017 16:00 warning for: Snow/Ice Level: Yellow info button

Although rather usual in this region, locally or potentially dangerous phenomena are expected. (such as local winds, summer thunderstorms, rising streams or high waves) Be aware and pay attention to the latest weather updates, especially if you carry out activities exposed to weather or close to a stream or shoreline. 


Meteo18 Weather Cam more information Meteo18 Weather Cam


Thunder radar more information blitzortung!


warning for Snow/Ice more information rain snow radar


Visit our other weather sites:

Template documentation
and downloads

And another site



Weather Underground History page Text

Daily Summary for April 5, 2017 Units:  Metric    English   Both
« Previous Day
Next Day »
Daily Weekly Monthly Yearly Custom
  High: Low: Average:
Temperature: 14.9 °C 7.8 °C 10.9 °C
Dew Point: 8.4 °C 5.6 °C 7 °C
Humidity: 93 % 56 % 78 %
Wind Speed: 25.7 km/h 0.0 km/h 9.4 km/h
Wind Gust: 37.0 km/h - -
Wind:- - South
Pressure: 1027.7 hPa 1024.6 hPa -
Precipitation: 0.0 mm    
Historical Graphs
 
 
Tabular Data for April 5, 2017
Time Temperature Dew Point Pressure Wind Wind Speed Wind Gust Humidity Rainfall Rate (Hourly)
00:02 12.2 °C 7.9 °C 1024.6 hPa NNE 8.0 km/h 22.5 km/h 75 % 0.0 mm
00:07 12.2 °C 7.9 °C 1024.9 hPa North 22.5 km/h 22.5 km/h 75 % 0.0 mm
00:12 12.1 °C 7.8 °C 1024.6 hPa West 1.6 km/h 24.1 km/h 75 % 0.0 mm
00:17 11.9 °C 7.6 °C 1024.6 hPa NNE 9.7 km/h 24.1 km/h 75 % 0.0 mm
00:22 11.9 °C 7.8 °C 1024.9 hPa NNW 8.0 km/h 22.5 km/h 76 % 0.0 mm
00:27 11.8 °C 7.7 °C 1024.9 hPa NNE 16.1 km/h 22.5 km/h 76 % 0.0 mm
00:32 11.7 °C 7.6 °C 1024.6 hPa NW 16.1 km/h 22.5 km/h 76 % 0.0 mm
00:42 11.6 °C 7.7 °C 1024.6 hPa NNE 11.3 km/h 25.7 km/h 77 % 0.0 mm
00:47 11.4 °C 7.5 °C 1024.6 hPa NNE 6.4 km/h 25.7 km/h 77 % 0.0 mm
00:52 11.3 °C 7.6 °C 1024.6 hPa NNW 9.7 km/h 22.5 km/h 78 % 0.0 mm
00:57 11.2 °C 7.5 °C 1024.6 hPa NNW 4.8 km/h 22.5 km/h 78 % 0.0 mm
01:02 11.2 °C 7.7 °C 1024.6 hPa NW 11.3 km/h 25.7 km/h 79 % 0.0 mm
01:07 11.1 °C 7.6 °C 1024.6 hPa NE 9.7 km/h 25.7 km/h 79 % 0.0 mm
01:12 10.9 °C 7.6 °C 1024.9 hPa NNE 4.8 km/h 25.7 km/h 80 % 0.0 mm
01:17 10.8 °C 7.5 °C 1024.9 hPa North 4.8 km/h 25.7 km/h 80 % 0.0 mm
01:22 10.7 °C 7.6 °C 1024.9 hPa North 9.7 km/h 25.7 km/h 81 % 0.0 mm
01:32 10.5 °C 7.4 °C 1024.6 hPa North 8.0 km/h 22.5 km/h 81 % 0.0 mm
01:37 10.4 °C 7.5 °C 1024.6 hPa NNE 6.4 km/h 22.5 km/h 82 % 0.0 mm
01:42 10.3 °C 7.4 °C 1024.6 hPa NNE 12.9 km/h 22.5 km/h 82 % 0.0 mm
01:47 10.2 °C 7.4 °C 1024.6 hPa NNW 8.0 km/h 22.5 km/h 83 % 0.0 mm
01:57 10.1 °C 7.3 °C 1024.6 hPa NE 8.0 km/h 24.1 km/h 83 % 0.0 mm
02:02 10.0 °C 7.4 °C 1024.6 hPa NNE 9.7 km/h 24.1 km/h 84 % 0.0 mm
02:07 9.9 °C 7.3 °C 1024.6 hPa NNE 9.7 km/h 24.1 km/h 84 % 0.0 mm
02:12 9.8 °C 7.2 °C 1024.6 hPa North 9.7 km/h 24.1 km/h 84 % 0.0 mm
02:17 9.8 °C 7.4 °C 1024.9 hPa NNE 8.0 km/h 24.1 km/h 85 % 0.0 mm
02:22 9.7 °C 7.3 °C 1024.9 hPa North 8.0 km/h 25.7 km/h 85 % 0.0 mm
02:27 9.6 °C 7.4 °C 1024.9 hPa NNW 9.7 km/h 25.7 km/h 86 % 0.0 mm
02:32 9.6 °C 7.4 °C 1024.9 hPa NE 8.0 km/h 17.7 km/h 86 % 0.0 mm
02:37 9.4 °C 7.2 °C 1024.9 hPa NNW 3.2 km/h 17.7 km/h 86 % 0.0 mm
02:42 9.3 °C 7.2 °C 1024.9 hPa NW 3.2 km/h 16.1 km/h 87 % 0.0 mm
02:47 9.3 °C 7.2 °C 1024.9 hPa West 1.6 km/h 11.3 km/h 87 % 0.0 mm
02:52 9.2 °C 7.1 °C 1024.9 hPa North 1.6 km/h 11.3 km/h 87 % 0.0 mm
02:57 9.1 °C 7.1 °C 1024.9 hPa Calm   9.7 km/h 87 % 0.0 mm
03:02 8.9 °C 7.0 °C 1024.9 hPa Calm   6.4 km/h 88 % 0.0 mm
03:07 8.9 °C 7.0 °C 1024.9 hPa WNW 1.6 km/h 4.8 km/h 88 % 0.0 mm
03:12 8.7 °C 6.8 °C 1024.9 hPa WSW 1.6 km/h 4.8 km/h 88 % 0.0 mm
03:17 8.6 °C 6.7 °C 1024.9 hPa Calm   4.8 km/h 88 % 0.0 mm
03:22 8.6 °C 6.9 °C 1024.9 hPa Calm   4.8 km/h 89 % 0.0 mm
03:27 8.4 °C 6.7 °C 1024.9 hPa West 1.6 km/h 1.6 km/h 89 % 0.0 mm
03:32 8.4 °C 6.9 °C 1024.9 hPa Calm   3.2 km/h 90 % 0.0 mm
03:37 8.3 °C 6.6 °C 1024.9 hPa Calm   3.2 km/h 89 % 0.0 mm
03:42 8.3 °C 6.9 °C 1024.9 hPa WNW 1.6 km/h 3.2 km/h 91 % 0.0 mm
03:47 8.2 °C 6.7 °C 1024.9 hPa Calm   3.2 km/h 90 % 0.0 mm
03:52 8.1 °C 6.7 °C 1024.9 hPa NNW 3.2 km/h 4.8 km/h 91 % 0.0 mm
03:57 8.1 °C 6.7 °C 1024.9 hPa North 4.8 km/h 6.4 km/h 91 % 0.0 mm
04:02 8.1 °C 6.7 °C 1024.9 hPa WNW 1.6 km/h 6.4 km/h 91 % 0.0 mm
04:07 8.2 °C 6.8 °C 1024.9 hPa WNW 1.6 km/h 6.4 km/h 91 % 0.0 mm
04:12 8.1 °C 6.7 °C 1024.9 hPa WNW 3.2 km/h 6.4 km/h 91 % 0.0 mm
04:17 8.2 °C 7.0 °C 1024.9 hPa West 1.6 km/h 6.4 km/h 92 % 0.0 mm
04:22 8.3 °C 7.1 °C 1024.9 hPa Calm   6.4 km/h 92 % 0.0 mm
04:27 8.3 °C 7.1 °C 1024.9 hPa NNW 1.6 km/h 6.4 km/h 92 % 0.0 mm
04:32 8.4 °C 7.2 °C 1024.9 hPa NNE 9.7 km/h 9.7 km/h 92 % 0.0 mm
04:37 8.5 °C 7.3 °C 1024.9 hPa NNW 11.3 km/h 24.1 km/h 92 % 0.0 mm
04:42 8.5 °C 7.3 °C 1024.9 hPa WNW 12.9 km/h 24.1 km/h 92 % 0.0 mm
04:47 8.6 °C 7.4 °C 1024.9 hPa North 6.4 km/h 24.1 km/h 92 % 0.0 mm
04:52 8.5 °C 7.3 °C 1024.9 hPa North 8.0 km/h 24.1 km/h 92 % 0.0 mm
04:57 8.6 °C 7.5 °C 1024.9 hPa North 16.1 km/h 17.7 km/h 93 % 0.0 mm
05:02 8.6 °C 7.5 °C 1024.9 hPa NNE 9.7 km/h 17.7 km/h 93 % 0.0 mm
05:07 8.6 °C 7.5 °C 1025.3 hPa NNW 9.7 km/h 16.1 km/h 93 % 0.0 mm
05:12 8.6 °C 7.5 °C 1024.9 hPa NNE 3.2 km/h 16.1 km/h 93 % 0.0 mm
05:17 8.7 °C 7.5 °C 1024.9 hPa North 8.0 km/h 14.5 km/h 92 % 0.0 mm
05:22 8.7 °C 7.5 °C 1024.9 hPa NNE 6.4 km/h 17.7 km/h 92 % 0.0 mm
05:32 8.7 °C 7.5 °C 1024.9 hPa NNW 12.9 km/h 17.7 km/h 92 % 0.0 mm
05:37 8.7 °C 7.3 °C 1024.9 hPa NW 6.4 km/h 19.3 km/h 91 % 0.0 mm
05:42 8.7 °C 7.3 °C 1024.9 hPa West 3.2 km/h 19.3 km/h 91 % 0.0 mm
05:47 8.7 °C 7.3 °C 1024.9 hPa NNW 4.8 km/h 16.1 km/h 91 % 0.0 mm
05:52 8.7 °C 7.3 °C 1024.9 hPa NNE 4.8 km/h 16.1 km/h 91 % 0.0 mm
05:57 8.7 °C 7.3 °C 1024.9 hPa NW 1.6 km/h 14.5 km/h 91 % 0.0 mm
06:02 8.7 °C 7.3 °C 1025.3 hPa NNW 3.2 km/h 19.3 km/h 91 % 0.0 mm
06:07 8.7 °C 7.3 °C 1025.3 hPa West 1.6 km/h 19.3 km/h 91 % 0.0 mm
06:12 8.7 °C 7.3 °C 1025.3 hPa North 4.8 km/h 19.3 km/h 91 % 0.0 mm
06:17 8.7 °C 7.3 °C 1025.3 hPa NNW 3.2 km/h 12.9 km/h 91 % 0.0 mm
06:22 8.7 °C 7.2 °C 1025.3 hPa NNW 12.9 km/h 12.9 km/h 90 % 0.0 mm
06:27 8.7 °C 7.2 °C 1025.3 hPa NNW 3.2 km/h 16.1 km/h 90 % 0.0 mm
06:32 8.6 °C 7.1 °C 1025.3 hPa NNW 4.8 km/h 16.1 km/h 90 % 0.0 mm
06:37 8.4 °C 6.9 °C 1025.3 hPa NW 3.2 km/h 19.3 km/h 90 % 0.0 mm
06:42 8.3 °C 6.8 °C 1025.3 hPa NNW 3.2 km/h 19.3 km/h 90 % 0.0 mm
06:47 8.2 °C 6.7 °C 1025.3 hPa WNW 1.6 km/h 19.3 km/h 90 % 0.0 mm
06:52 8.1 °C 6.6 °C 1025.3 hPa NNW 8.0 km/h 19.3 km/h 90 % 0.0 mm
06:57 8.1 °C 6.6 °C 1025.3 hPa NNW 6.4 km/h 16.1 km/h 90 % 0.0 mm
07:02 7.9 °C 6.4 °C 1025.3 hPa NNW 8.0 km/h 16.1 km/h 90 % 0.0 mm
07:07 7.9 °C 6.5 °C 1025.3 hPa North 6.4 km/h 14.5 km/h 91 % 0.0 mm
07:12 7.9 °C 6.4 °C 1025.3 hPa NNW 1.6 km/h 17.7 km/h 90 % 0.0 mm
07:17 7.8 °C 6.4 °C 1025.3 hPa NW 9.7 km/h 17.7 km/h 91 % 0.0 mm
07:22 7.9 °C 6.5 °C 1025.6 hPa ENE 3.2 km/h 17.7 km/h 91 % 0.0 mm
07:32 8.0 °C 6.6 °C 1025.6 hPa NE 1.6 km/h 16.1 km/h 91 % 0.0 mm
07:37 8.1 °C 6.7 °C 1025.6 hPa NNW 6.4 km/h 11.3 km/h 91 % 0.0 mm
07:42 8.1 °C 6.7 °C 1025.6 hPa NNE 4.8 km/h 16.1 km/h 91 % 0.0 mm
07:52 8.1 °C 6.7 °C 1025.6 hPa NNW 4.8 km/h 16.1 km/h 91 % 0.0 mm
07:57 8.1 °C 6.6 °C 1025.6 hPa NW 6.4 km/h 17.7 km/h 90 % 0.0 mm
08:02 8.1 °C 6.6 °C 1025.6 hPa NNW 9.7 km/h 17.7 km/h 90 % 0.0 mm
08:07 8.0 °C 6.5 °C 1025.6 hPa NNW 8.0 km/h 17.7 km/h 90 % 0.0 mm
08:12 7.9 °C 6.5 °C 1025.6 hPa NNW 4.8 km/h 16.1 km/h 91 % 0.0 mm
08:17 7.9 °C 6.5 °C 1025.6 hPa NNE 1.6 km/h 16.1 km/h 91 % 0.0 mm
08:22 7.9 °C 6.5 °C 1025.6 hPa NNW 4.8 km/h 14.5 km/h 91 % 0.0 mm
08:27 7.9 °C 6.4 °C 1025.6 hPa NW 6.4 km/h 11.3 km/h 90 % 0.0 mm
08:32 7.9 °C 6.4 °C 1026.0 hPa NW 9.7 km/h 14.5 km/h 90 % 0.0 mm
08:37 7.9 °C 6.4 °C 1026.0 hPa North 16.1 km/h 16.1 km/h 90 % 0.0 mm
08:42 7.9 °C 6.4 °C 1026.0 hPa North 12.9 km/h 19.3 km/h 90 % 0.0 mm
08:47 7.9 °C 6.5 °C 1026.0 hPa North 11.3 km/h 25.7 km/h 91 % 0.0 mm
08:52 7.9 °C 6.4 °C 1026.0 hPa NNE 16.1 km/h 25.7 km/h 90 % 0.0 mm
08:57 7.9 °C 6.5 °C 1026.0 hPa NNW 14.5 km/h 22.5 km/h 91 % 0.0 mm
09:02 8.0 °C 6.6 °C 1026.0 hPa NNW 9.7 km/h 20.9 km/h 91 % 0.0 mm
09:07 8.0 °C 6.6 °C 1026.0 hPa NNW 14.5 km/h 20.9 km/h 91 % 0.0 mm
09:12 8.0 °C 6.6 °C 1026.3 hPa NNW 3.2 km/h 19.3 km/h 91 % 0.0 mm
09:17 7.9 °C 6.4 °C 1026.3 hPa NNW 9.7 km/h 19.3 km/h 90 % 0.0 mm
09:22 7.9 °C 6.5 °C 1026.3 hPa NW 4.8 km/h 22.5 km/h 91 % 0.0 mm
09:27 7.9 °C 6.5 °C 1026.3 hPa NNE 11.3 km/h 22.5 km/h 91 % 0.0 mm
09:32 7.8 °C 6.4 °C 1026.3 hPa NNW 9.7 km/h 22.5 km/h 91 % 0.0 mm
09:37 7.8 °C 6.4 °C 1026.6 hPa North 11.3 km/h 17.7 km/h 91 % 0.0 mm
09:42 7.8 °C 6.3 °C 1026.6 hPa NNE 9.7 km/h 17.7 km/h 90 % 0.0 mm
09:47 7.9 °C 6.4 °C 1026.6 hPa NW 20.9 km/h 20.9 km/h 90 % 0.0 mm
09:52 7.9 °C 6.4 °C 1026.6 hPa NNW 12.9 km/h 20.9 km/h 90 % 0.0 mm
09:57 7.9 °C 6.4 °C 1026.6 hPa North 9.7 km/h 25.7 km/h 90 % 0.0 mm
10:02 7.9 °C 6.4 °C 1027.0 hPa North 9.7 km/h 25.7 km/h 90 % 0.0 mm
10:07 7.9 °C 6.4 °C 1027.0 hPa NE 8.0 km/h 24.1 km/h 90 % 0.0 mm
10:12 8.1 °C 6.6 °C 1027.0 hPa North 9.7 km/h 24.1 km/h 90 % 0.0 mm
10:17 8.1 °C 6.4 °C 1027.0 hPa NNW 12.9 km/h 29.0 km/h 89 % 0.0 mm
10:22 8.2 °C 6.5 °C 1027.0 hPa NNW 22.5 km/h 29.0 km/h 89 % 0.0 mm
10:27 8.3 °C 6.6 °C 1027.0 hPa North 8.0 km/h 29.0 km/h 89 % 0.0 mm
10:32 8.3 °C 6.4 °C 1027.0 hPa NNW 16.1 km/h 29.0 km/h 88 % 0.0 mm
10:37 8.4 °C 6.5 °C 1027.0 hPa NW 6.4 km/h 25.7 km/h 88 % 0.0 mm
10:42 8.6 °C 6.7 °C 1027.0 hPa North 12.9 km/h 29.0 km/h 88 % 0.0 mm
10:47 8.7 °C 6.5 °C 1027.0 hPa NNW 19.3 km/h 29.0 km/h 86 % 0.0 mm
10:52 8.7 °C 6.7 °C 1027.0 hPa NNW 8.0 km/h 24.1 km/h 87 % 0.0 mm
10:57 8.8 °C 6.6 °C 1027.3 hPa NNE 16.1 km/h 24.1 km/h 86 % 0.0 mm
11:02 8.8 °C 6.6 °C 1027.3 hPa NNE 17.7 km/h 24.1 km/h 86 % 0.0 mm
11:07 9.1 °C 6.9 °C 1027.3 hPa NNE 19.3 km/h 25.7 km/h 86 % 0.0 mm
11:12 9.2 °C 6.6 °C 1027.3 hPa NNW 8.0 km/h 25.7 km/h 84 % 0.0 mm
11:17 9.3 °C 6.9 °C 1027.3 hPa NE 9.7 km/h 25.7 km/h 85 % 0.0 mm
11:22 9.3 °C 6.7 °C 1027.3 hPa NNW 16.1 km/h 25.7 km/h 84 % 0.0 mm
11:27 9.6 °C 7.2 °C 1027.3 hPa NNW 17.7 km/h 24.1 km/h 85 % 0.0 mm
11:32 9.7 °C 7.0 °C 1027.3 hPa NNW 17.7 km/h 24.1 km/h 83 % 0.0 mm
11:37 9.8 °C 7.1 °C 1027.3 hPa North 11.3 km/h 24.1 km/h 83 % 0.0 mm
11:42 10.1 °C 7.3 °C 1027.7 hPa NNW 4.8 km/h 24.1 km/h 83 % 0.0 mm
11:47 10.2 °C 7.1 °C 1027.3 hPa North 9.7 km/h 24.1 km/h 81 % 0.0 mm
11:52 10.3 °C 7.4 °C 1027.7 hPa NW 9.7 km/h 25.7 km/h 82 % 0.0 mm
11:57 10.5 °C 7.6 °C 1027.3 hPa NE 16.1 km/h 25.7 km/h 82 % 0.0 mm
12:02 10.7 °C 7.4 °C 1027.3 hPa NE 12.9 km/h 25.7 km/h 80 % 0.0 mm
12:07 10.9 °C 7.6 °C 1027.3 hPa NNE 12.9 km/h 22.5 km/h 80 % 0.0 mm
12:12 11.1 °C 7.4 °C 1027.3 hPa NNE 11.3 km/h 22.5 km/h 78 % 0.0 mm
12:17 11.3 °C 7.6 °C 1027.3 hPa WNW 9.7 km/h 19.3 km/h 78 % 0.0 mm
12:22 11.4 °C 7.7 °C 1027.3 hPa NNE 4.8 km/h 20.9 km/h 78 % 0.0 mm
12:27 11.5 °C 7.8 °C 1027.0 hPa North 14.5 km/h 20.9 km/h 78 % 0.0 mm
12:32 11.6 °C 8.1 °C 1027.0 hPa NW 4.8 km/h 22.5 km/h 79 % 0.0 mm
12:42 11.9 °C 7.8 °C 1027.0 hPa NNW 9.7 km/h 22.5 km/h 76 % 0.0 mm
12:47 11.8 °C 7.7 °C 1027.0 hPa NW 11.3 km/h 20.9 km/h 76 % 0.0 mm
12:52 12.2 °C 8.3 °C 1027.0 hPa NW 9.7 km/h 20.9 km/h 77 % 0.0 mm
12:57 12.4 °C 7.9 °C 1027.0 hPa NNW 8.0 km/h 25.7 km/h 74 % 0.0 mm
13:02 12.6 °C 8.1 °C 1027.0 hPa North 8.0 km/h 25.7 km/h 74 % 0.0 mm
13:07 12.7 °C 8.0 °C 1027.0 hPa NNE 6.4 km/h 19.3 km/h 73 % 0.0 mm
13:12 12.8 °C 8.3 °C 1026.6 hPa NNE 20.9 km/h 20.9 km/h 74 % 0.0 mm
13:17 12.8 °C 8.3 °C 1026.6 hPa Calm   25.7 km/h 74 % 0.0 mm
13:22 12.9 °C 7.8 °C 1026.6 hPa NNW 14.5 km/h 25.7 km/h 71 % 0.0 mm
13:27 12.9 °C 8.2 °C 1026.6 hPa NE 14.5 km/h 25.7 km/h 73 % 0.0 mm
13:32 13.3 °C 7.9 °C 1026.6 hPa NNE 12.9 km/h 22.5 km/h 70 % 0.0 mm
13:37 13.3 °C 7.9 °C 1026.6 hPa NNW 4.8 km/h 24.1 km/h 70 % 0.0 mm
13:42 13.4 °C 7.8 °C 1026.6 hPa NE 22.5 km/h 24.1 km/h 69 % 0.0 mm
13:47 13.4 °C 8.0 °C 1026.3 hPa NE 12.9 km/h 27.4 km/h 70 % 0.0 mm
13:52 13.6 °C 7.8 °C 1026.3 hPa NNW 6.4 km/h 27.4 km/h 68 % 0.0 mm
13:57 13.7 °C 8.1 °C 1026.3 hPa NE 8.0 km/h 27.4 km/h 69 % 0.0 mm
14:02 13.8 °C 7.8 °C 1026.3 hPa North 16.1 km/h 25.7 km/h 67 % 0.0 mm
14:07 13.9 °C 7.7 °C 1026.6 hPa NNE 20.9 km/h 25.7 km/h 66 % 0.0 mm
14:12 14.0 °C 8.0 °C 1026.3 hPa North 25.7 km/h 25.7 km/h 67 % 0.0 mm
14:17 14.0 °C 8.4 °C 1026.6 hPa NNE 17.7 km/h 27.4 km/h 69 % 0.0 mm
14:22 14.1 °C 7.6 °C 1026.6 hPa North 20.9 km/h 27.4 km/h 65 % 0.0 mm
14:27 14.1 °C 7.6 °C 1026.3 hPa North 20.9 km/h 32.2 km/h 65 % 0.0 mm
14:32 14.0 °C 7.5 °C 1026.3 hPa North 14.5 km/h 32.2 km/h 65 % 0.0 mm
14:37 14.1 °C 7.8 °C 1026.3 hPa NE 9.7 km/h 32.2 km/h 66 % 0.0 mm
14:42 14.2 °C 7.5 °C 1026.3 hPa WNW 12.9 km/h 32.2 km/h 64 % 0.0 mm
14:47 14.2 °C 7.0 °C 1026.3 hPa NNW 19.3 km/h 33.8 km/h 62 % 0.0 mm
14:52 14.3 °C 7.4 °C 1026.3 hPa North 12.9 km/h 33.8 km/h 63 % 0.0 mm
14:57 14.2 °C 7.3 °C 1026.3 hPa NNW 16.1 km/h 33.8 km/h 63 % 0.0 mm
15:02 14.2 °C 7.3 °C 1026.3 hPa NNW 9.7 km/h 32.2 km/h 63 % 0.0 mm
15:07 14.2 °C 7.0 °C 1026.3 hPa North 17.7 km/h 32.2 km/h 62 % 0.0 mm
15:12 14.6 °C 7.6 °C 1026.3 hPa NNW 19.3 km/h 32.2 km/h 63 % 0.0 mm
15:17 14.4 °C 7.2 °C 1026.3 hPa NNE 16.1 km/h 32.2 km/h 62 % 0.0 mm
15:27 14.4 °C 6.5 °C 1026.3 hPa WNW 8.0 km/h 32.2 km/h 59 % 0.0 mm
15:32 14.3 °C 6.9 °C 1026.0 hPa North 22.5 km/h 33.8 km/h 61 % 0.0 mm
15:37 14.3 °C 6.6 °C 1026.3 hPa NNW 11.3 km/h 37.0 km/h 60 % 0.0 mm
15:42 14.4 °C 7.2 °C 1026.3 hPa NE 12.9 km/h 37.0 km/h 62 % 0.0 mm
15:47 14.6 °C 6.7 °C 1026.3 hPa NE 14.5 km/h 32.2 km/h 59 % 0.0 mm
15:52 14.6 °C 6.4 °C 1026.0 hPa NNE 25.7 km/h 30.6 km/h 58 % 0.0 mm
15:57 14.6 °C 6.4 °C 1026.3 hPa North 11.3 km/h 33.8 km/h 58 % 0.0 mm
16:02 14.5 °C 6.3 °C 1026.3 hPa North 17.7 km/h 33.8 km/h 58 % 0.0 mm
16:07 14.6 °C 6.7 °C 1026.3 hPa NNE 14.5 km/h 33.8 km/h 59 % 0.0 mm
16:12 14.4 °C 6.5 °C 1026.3 hPa WNW 12.9 km/h 35.4 km/h 59 % 0.0 mm
16:17 14.6 °C 6.9 °C 1026.3 hPa NNE 16.1 km/h 35.4 km/h 60 % 0.0 mm
16:22 14.7 °C 6.8 °C 1026.3 hPa NNW 22.5 km/h 35.4 km/h 59 % 0.0 mm
16:27 14.8 °C 6.1 °C 1026.0 hPa NNW 17.7 km/h 33.8 km/h 56 % 0.0 mm
16:32 14.8 °C 6.4 °C 1026.3 hPa NNW 16.1 km/h 33.8 km/h 57 % 0.0 mm
16:37 14.7 °C 6.3 °C 1026.0 hPa ENE 19.3 km/h 33.8 km/h 57 % 0.0 mm
16:42 14.8 °C 6.6 °C 1026.0 hPa North 6.4 km/h 32.2 km/h 58 % 0.0 mm
16:47 14.9 °C 7.0 °C 1026.0 hPa ESE 12.9 km/h 32.2 km/h 59 % 0.0 mm
16:52 14.7 °C 6.8 °C 1026.0 hPa NNW 6.4 km/h 30.6 km/h 59 % 0.0 mm
16:57 14.7 °C 6.5 °C 1026.0 hPa NNW 11.3 km/h 29.0 km/h 58 % 0.0 mm
17:02 14.9 °C 6.7 °C 1026.0 hPa NNE 14.5 km/h 29.0 km/h 58 % 0.0 mm
17:07 14.7 °C 6.8 °C 1026.0 hPa North 20.9 km/h 29.0 km/h 59 % 0.0 mm
17:12 14.7 °C 7.0 °C 1026.0 hPa NNW 14.5 km/h 27.4 km/h 60 % 0.0 mm
17:17 14.7 °C 6.8 °C 1026.0 hPa NNW 9.7 km/h 27.4 km/h 59 % 0.0 mm
17:22 14.8 °C 6.6 °C 1026.0 hPa NNE 11.3 km/h 27.4 km/h 58 % 0.0 mm
17:27 14.7 °C 6.8 °C 1026.0 hPa North 14.5 km/h 25.7 km/h 59 % 0.0 mm
17:37 14.7 °C 6.8 °C 1026.0 hPa NNW 8.0 km/h 29.0 km/h 59 % 0.0 mm
17:42 14.6 °C 6.9 °C 1026.0 hPa NW 14.5 km/h 29.0 km/h 60 % 0.0 mm
17:47 14.7 °C 6.8 °C 1026.0 hPa NE 19.3 km/h 29.0 km/h 59 % 0.0 mm
17:52 14.8 °C 7.1 °C 1026.0 hPa NE 12.9 km/h 27.4 km/h 60 % 0.0 mm
17:57 14.8 °C 6.9 °C 1026.0 hPa North 11.3 km/h 24.1 km/h 59 % 0.0 mm
18:02 14.9 °C 7.0 °C 1026.0 hPa NNW 9.7 km/h 20.9 km/h 59 % 0.0 mm
18:07 14.8 °C 6.6 °C 1026.0 hPa NNW 6.4 km/h 25.7 km/h 58 % 0.0 mm
18:17 14.6 °C 6.2 °C 1026.0 hPa ENE 19.3 km/h 25.7 km/h 57 % 0.0 mm
18:22 14.4 °C 6.2 °C 1026.0 hPa NNW 14.5 km/h 25.7 km/h 58 % 0.0 mm
18:27 14.4 °C 6.2 °C 1026.0 hPa North 8.0 km/h 27.4 km/h 58 % 0.0 mm
18:32 14.3 °C 6.4 °C 1026.0 hPa North 6.4 km/h 27.4 km/h 59 % 0.0 mm
18:42 14.2 °C 6.1 °C 1026.0 hPa NNE 11.3 km/h 27.4 km/h 58 % 0.0 mm
18:47 14.2 °C 6.1 °C 1026.0 hPa North 17.7 km/h 27.4 km/h 58 % 0.0 mm
18:52 14.2 °C 5.8 °C 1026.0 hPa North 17.7 km/h 29.0 km/h 57 % 0.0 mm
18:57 14.1 °C 6.2 °C 1026.0 hPa NE 9.7 km/h 29.0 km/h 59 % 0.0 mm
19:02 14.1 °C 6.2 °C 1026.0 hPa NNE 14.5 km/h 29.0 km/h 59 % 0.0 mm
19:07 14.1 °C 6.5 °C 1026.0 hPa NNW 9.7 km/h 27.4 km/h 60 % 0.0 mm
19:12 13.9 °C 6.5 °C 1026.0 hPa ENE 8.0 km/h 24.1 km/h 61 % 0.0 mm
19:17 13.8 °C 6.6 °C 1026.0 hPa North 6.4 km/h 22.5 km/h 62 % 0.0 mm
19:22 13.7 °C 6.5 °C 1026.0 hPa NNE 14.5 km/h 22.5 km/h 62 % 0.0 mm
19:27 13.6 °C 6.7 °C 1026.0 hPa NNE 8.0 km/h 20.9 km/h 63 % 0.0 mm
19:32 13.6 °C 6.9 °C 1026.0 hPa NNW 8.0 km/h 20.9 km/h 64 % 0.0 mm
19:37 13.4 °C 6.3 °C 1026.0 hPa North 8.0 km/h 24.1 km/h 62 % 0.0 mm
19:42 13.4 °C 6.7 °C 1026.0 hPa NNE 4.8 km/h 24.1 km/h 64 % 0.0 mm
19:47 13.3 °C 6.6 °C 1026.0 hPa NNE 6.4 km/h 24.1 km/h 64 % 0.0 mm
19:52 13.3 °C 6.6 °C 1026.3 hPa NNW 14.5 km/h 19.3 km/h 64 % 0.0 mm
19:57 13.2 °C 6.8 °C 1026.0 hPa NNE 6.4 km/h 19.3 km/h 65 % 0.0 mm
20:02 13.1 °C 6.7 °C 1026.3 hPa NNW 8.0 km/h 19.3 km/h 65 % 0.0 mm
20:07 13.0 °C 6.8 °C 1026.3 hPa NNW 4.8 km/h 16.1 km/h 66 % 0.0 mm
20:12 12.9 °C 6.7 °C 1026.3 hPa NNE 6.4 km/h 14.5 km/h 66 % 0.0 mm
20:17 12.8 °C 6.6 °C 1026.3 hPa North 6.4 km/h 14.5 km/h 66 % 0.0 mm
20:22 12.7 °C 6.7 °C 1026.3 hPa NW 4.8 km/h 16.1 km/h 67 % 0.0 mm
20:27 12.6 °C 6.6 °C 1026.3 hPa North 9.7 km/h 16.1 km/h 67 % 0.0 mm
20:32 12.4 °C 6.7 °C 1026.3 hPa North 14.5 km/h 14.5 km/h 68 % 0.0 mm
20:37 12.3 °C 6.6 °C 1026.3 hPa NNW 6.4 km/h 19.3 km/h 68 % 0.0 mm
20:42 12.2 °C 6.7 °C 1026.3 hPa NNE 9.7 km/h 19.3 km/h 69 % 0.0 mm
20:47 12.1 °C 6.8 °C 1026.3 hPa North 8.0 km/h 19.3 km/h 70 % 0.0 mm
20:52 12.1 °C 6.8 °C 1026.3 hPa NNW 4.8 km/h 17.7 km/h 70 % 0.0 mm
20:57 12.0 °C 6.9 °C 1026.3 hPa NNE 11.3 km/h 17.7 km/h 71 % 0.0 mm
21:02 11.9 °C 6.8 °C 1026.6 hPa NNW 8.0 km/h 16.1 km/h 71 % 0.0 mm
21:07 11.8 °C 6.9 °C 1026.6 hPa NNE 12.9 km/h 16.1 km/h 72 % 0.0 mm
21:12 11.7 °C 6.8 °C 1026.6 hPa WNW 6.4 km/h 19.3 km/h 72 % 0.0 mm
21:17 11.6 °C 6.9 °C 1026.6 hPa NNW 8.0 km/h 19.3 km/h 73 % 0.0 mm
21:22 11.5 °C 7.0 °C 1026.6 hPa North 14.5 km/h 19.3 km/h 74 % 0.0 mm
21:27 11.4 °C 7.1 °C 1026.6 hPa NNE 6.4 km/h 24.1 km/h 75 % 0.0 mm
21:32 11.3 °C 7.2 °C 1026.6 hPa NE 17.7 km/h 24.1 km/h 76 % 0.0 mm
21:37 11.2 °C 7.1 °C 1027.0 hPa North 9.7 km/h 24.1 km/h 76 % 0.0 mm
21:42 11.2 °C 7.1 °C 1027.0 hPa North 3.2 km/h 20.9 km/h 76 % 0.0 mm
21:47 11.0 °C 7.1 °C 1027.0 hPa WNW 6.4 km/h 20.9 km/h 77 % 0.0 mm
21:52 10.9 °C 7.2 °C 1027.0 hPa North 9.7 km/h 16.1 km/h 78 % 0.0 mm
22:02 10.7 °C 7.0 °C 1027.3 hPa NNW 11.3 km/h 16.1 km/h 78 % 0.0 mm
22:12 10.6 °C 7.1 °C 1027.3 hPa NNW 11.3 km/h 14.5 km/h 79 % 0.0 mm
22:22 10.3 °C 6.8 °C 1027.3 hPa North 4.8 km/h 16.1 km/h 79 % 0.0 mm
22:27 10.2 °C 6.7 °C 1027.3 hPa NE 3.2 km/h 16.1 km/h 79 % 0.0 mm
22:32 10.1 °C 6.6 °C 1027.3 hPa NNW 6.4 km/h 12.9 km/h 79 % 0.0 mm
22:37 10.1 °C 6.6 °C 1027.3 hPa NE 8.0 km/h 14.5 km/h 79 % 0.0 mm
22:42 9.9 °C 6.4 °C 1027.3 hPa NNW 3.2 km/h 14.5 km/h 79 % 0.0 mm
22:47 9.8 °C 6.5 °C 1027.3 hPa NNE 4.8 km/h 14.5 km/h 80 % 0.0 mm
22:52 9.7 °C 6.4 °C 1027.3 hPa NNW 3.2 km/h 11.3 km/h 80 % 0.0 mm
22:57 9.6 °C 6.3 °C 1027.3 hPa NE 3.2 km/h 12.9 km/h 80 % 0.0 mm
23:02 9.6 °C 6.3 °C 1027.3 hPa North 1.6 km/h 12.9 km/h 80 % 0.0 mm
23:07 9.4 °C 6.3 °C 1027.3 hPa NNW 3.2 km/h 11.3 km/h 81 % 0.0 mm
23:12 9.3 °C 6.2 °C 1027.3 hPa NE 3.2 km/h 9.7 km/h 81 % 0.0 mm
23:17 9.3 °C 6.2 °C 1027.3 hPa NNE 8.0 km/h 8.0 km/h 81 % 0.0 mm
23:22 9.2 °C 6.1 °C 1027.3 hPa NNE 4.8 km/h 14.5 km/h 81 % 0.0 mm
23:32 9.4 °C 6.1 °C 1027.3 hPa NE 4.8 km/h 12.9 km/h 80 % 0.0 mm
23:37 9.3 °C 5.8 °C 1027.3 hPa NNE 6.4 km/h 14.5 km/h 79 % 0.0 mm
23:42 9.2 °C 5.9 °C 1027.3 hPa NNW 3.2 km/h 14.5 km/h 80 % 0.0 mm
23:47 9.1 °C 5.7 °C 1027.3 hPa NE 4.8 km/h 14.5 km/h 79 % 0.0 mm
23:52 9.0 °C 5.7 °C 1027.3 hPa NNE 6.4 km/h 12.9 km/h 80 % 0.0 mm
23:57 9.0 °C 5.6 °C 1027.3 hPa NNW 6.4 km/h 12.9 km/h 79 % 0.0 mm
Meteo18
Compliments of Weather Underground - 4 mb

Script developed by  Jim McMurry - jmcmurry@mwt.net Adapted for the template by  Wim van der Kuil - Leuven-Template.eu

You find our weather info also at:

European Weather Network

Weather Underground

Equipment we use:

Weather-station
Davis Vue

Weather-program
Meteohub

Weather-server
Raspberry PI 2 B+

Provider
1 and 1

Davis Vue

Meteohub

Raspberry PI 2 B+

1 and 1